• Join FlightAware (Why Join?)
  • Login
  • US Flag 
10:52AM EDT


 

Airport Tracker/Info


-or-


 

Live Flight TrackerFlight Track Log ✈ N566UA ✈ 09-May-2013 ✈ KDEN - KIAH

Flight Track Log - Related Links

Times and Time Zones

All times are in EDT time to prevent confusion due to time zone crossing. See the N566UA flight status page for this flight to view local times or setup timezone preferences in your user account.

Time Position Orientation Groundspeed Altitude Reporting Facility
EDT Latitude Longitude Course Direction KTS MPH feet Rate Location/Type
12:34PM 39.8333 -104.7500 166° South 203 234 6,500  Level Denver TRACON
12:35PM 39.8167 -104.8333 255° West 248 285 8,800 1,980 Climbing Denver TRACON
12:36PM 39.6002 -104.3833 163° South  Level Estimated
12:36PM 39.7586 -104.8956 219° Southwest 294 338 10,800  Level Denver Center
12:37PM 39.5129 -104.2871 159° South  Level Estimated
12:37PM 39.6592 -104.8983 181° South 332 382 13,300  Level Denver Center
12:38PM 39.4255 -104.1912 161° South  Level Estimated
12:38PM 39.5644 -104.8736 169° South 346 398 15,900  Level Denver Center
12:39PM 39.3380 -104.0956 166° South  Level Estimated
12:39PM 39.4567 -104.8453 169° South 365 420 17,900  Level Denver Center
12:40PM 39.3469 -104.8172 169° South 399 459 19,600 1,800 Climbing Denver Center
12:41PM 39.2297 -104.7864 168° South 428 493 21,700 1,860 Climbing Denver Center
12:42PM 39.1164 -104.7608 170° South 428 493 23,500 1,800 Climbing Denver Center
12:43PM 38.9861 -104.7136 164° South 429 494 25,500 1,620 Climbing Denver Center
12:44PM 38.8700 -104.6656 162° South 450 518 26,900 1,440 Climbing Denver Center
12:45PM 38.7383 -104.6064 161° South 447 514 28,500 1,500 Climbing Denver Center
12:46PM 38.6189 -104.5589 163° South 463 533 30,000 1,560 Climbing Denver Center
12:47PM 38.4808 -104.5014 162° South 466 536 31,800 1,680 Climbing Denver Center
12:48PM 38.3644 -104.4567 163° South 460 529 33,500 1,500 Climbing Denver Center
12:49PM 38.2361 -104.3814 155° Southeast 461 531 34,900 720 Climbing Denver Center
12:50PM 38.1283 -104.3172 155° Southeast 451 519 35,000 480 Climbing Denver Center
12:51PM 37.9914 -104.2842 169° South 451 519 36,000 780 Climbing Denver Center
12:52PM 37.8744 -104.2556 169° South 447 514 36,700 480 Climbing Denver Center
12:53PM 37.7375 -104.2217 169° South 449 517 37,000 120 Climbing Denver Center
12:54PM 37.6200 -104.1922 169° South 453 521 37,000  Level Denver Center
12:55PM 37.4858 -104.1583 169° South 449 517 37,000  Level Denver Center
12:56PM 37.3719 -104.1297 169° South 444 511 37,000  Level Denver Center
12:57PM 37.2392 -104.0961 169° South 439 505 37,000  Level Denver Center
12:58PM 37.1239 -104.0672 169° South 440 506 37,000  Level Denver Center
12:59PM 37.0675 -104.0533 169° South 439 505 37,000  Level Albuquerque Center
01:00PM 36.9353 -104.0217 169° South 434 499 37,000  Level Albuquerque Center
01:01PM 36.8222 -103.9953 169° South 431 496 37,000  Level Albuquerque Center
01:02PM 36.6886 -103.9633 169° South 435 501 37,000  Level Albuquerque Center
01:03PM 36.5697 -103.9358 169° South 438 504 37,000  Level Albuquerque Center
01:04PM 36.4450 -103.9028 168° South 450 518 37,000  Level Albuquerque Center
01:05PM 36.3197 -103.8728 169° South 454 522 37,000  Level Albuquerque Center
01:06PM 36.1944 -103.8425 169° South 454 522 37,000  Level Albuquerque Center
01:07PM 36.0694 -103.8094 168° South 454 522 37,000  Level Albuquerque Center
01:08PM 35.9233 -103.7744 169° South 453 521 37,000  Level Albuquerque Center
01:09PM 35.7992 -103.7442 169° South 451 519 37,000  Level Albuquerque Center
01:10PM 35.6753 -103.7142 169° South 449 517 37,000  Level Albuquerque Center
01:11PM 35.5503 -103.6847 169° South 449 517 37,000  Level Albuquerque Center
01:12PM 35.4236 -103.6553 169° South 453 521 37,000  Level Albuquerque Center
01:13PM 35.2978 -103.6261 169° South 453 521 37,000  Level Albuquerque Center
01:14PM 35.1731 -103.5861 165° South 457 526 37,000  Level Albuquerque Center
01:15PM 35.0608 -103.5039 149° Southeast 464 534 37,000  Level Albuquerque Center
01:16PM 34.9522 -103.4164 147° Southeast 464 534 37,000  Level Albuquerque Center
01:17PM 34.8250 -103.3178 148° Southeast 461 531 37,000  Level Albuquerque Center
01:19PM 34.7139 -103.2317 147° Southeast 464 534 37,000  Level Albuquerque Center
01:20PM 34.6050 -103.1458 147° Southeast 463 533 37,000  Level Albuquerque Center
01:21PM 34.4950 -103.0617 148° Southeast 462 532 37,000  Level Albuquerque Center
01:22PM 34.3831 -102.9758 148° Southeast 466 536 37,000  Level Albuquerque Center
01:23PM 34.2744 -102.8925 148° Southeast 465 535 37,000  Level Albuquerque Center
01:24PM 34.1631 -102.8078 148° Southeast 459 528 37,000  Level Albuquerque Center
01:25PM 34.0544 -102.7267 148° Southeast 458 527 37,000  Level Albuquerque Center
01:26PM 33.9469 -102.6417 147° Southeast 460 529 37,000  Level Albuquerque Center
01:27PM 33.8408 -102.5608 148° Southeast 456 525 37,000  Level Albuquerque Center
01:28PM 33.7111 -102.4644 148° Southeast 456 525 37,000  Level Albuquerque Center
01:29PM 33.6044 -102.3839 148° Southeast 454 522 37,000  Level Albuquerque Center
01:30PM 33.4972 -102.3025 148° Southeast 454 522 37,000  Level Albuquerque Center
01:31PM 33.3883 -102.2208 148° Southeast 457 526 37,000  Level Albuquerque Center
01:32PM 33.2825 -102.1425 148° Southeast 453 521 37,000  Level Albuquerque Center
01:33PM 33.1586 -102.0533 149° Southeast 461 531 37,000  Level Fort Worth Center
01:34PM 33.0633 -101.9792 147° Southeast 461 531 37,000  Level Fort Worth Center
01:35PM 32.9675 -101.9122 150° Southeast 454 522 37,000  Level Fort Worth Center
01:36PM 32.8519 -101.8225 147° Southeast 449 517 37,000  Level Fort Worth Center
01:37PM 32.7439 -101.7431 148° Southeast 449 517 37,000  Level Fort Worth Center
01:38PM 32.6258 -101.6583 149° Southeast 454 522 37,000  Level Fort Worth Center
01:39PM 32.5178 -101.5794 148° Southeast 454 522 37,000  Level Fort Worth Center
01:40PM 32.4164 -101.4886 143° Southeast 454 522 37,000  Level Fort Worth Center
01:41PM 32.3414 -101.3572 124° Southeast 460 529 37,000  Level Fort Worth Center
01:42PM 32.2678 -101.2339 125° Southeast 465 535 37,000  Level Fort Worth Center
01:43PM 32.1911 -101.1519 138° Southeast 465 535 37,000  Level Fort Worth Center
01:44PM 32.0669 -101.0367 142° Southeast 464 534 37,000  Level Fort Worth Center
01:45PM 31.9672 -100.9542 145° Southeast 464 534 37,000  Level Fort Worth Center
01:46PM 31.8611 -100.8644 144° Southeast 464 534 37,000  Level Fort Worth Center
01:47PM 31.7569 -100.7753 144° Southeast 464 534 37,000  Level Fort Worth Center
01:48PM 31.6550 -100.6883 144° Southeast 464 534 37,000  Level Fort Worth Center
01:49PM 31.5486 -100.6017 145° Southeast 464 534 37,000 -60 Level Fort Worth Center
01:50PM 31.4422 -100.5131 145° Southeast 457 526 36,900  Descending Fort Worth Center
01:51PM 31.3553 -100.3933 130° Southeast 463 533 37,000  Climbing Fort Worth Center
01:52PM 31.3114 -100.2678 112° Southeast 519 597 37,000  Level Houston Center
01:53PM 31.2581 -100.1092 111° Southeast 523 602 37,000  Level Houston Center
01:54PM 31.2039 -99.9492 112° Southeast 526 605 37,000  Level Houston Center
01:55PM 31.1481 -99.7894 112° Southeast 529 609 37,000  Level Houston Center
01:56PM 31.0931 -99.6303 112° Southeast 529 609 37,000  Level Houston Center
01:57PM 31.0392 -99.4722 112° Southeast 526 605 37,000  Level Houston Center
01:58PM 30.9711 -99.2803 112° Southeast 531 611 37,000  Level Houston Center
01:59PM 30.9150 -99.1192 112° Southeast 528 608 37,000  Level Houston Center
02:00PM 30.8592 -98.9611 112° Southeast 525 604 37,000  Level Houston Center
02:01PM 30.8056 -98.8014 111° Southeast 526 605 37,000  Level Houston Center
02:02PM 30.8006 -98.6283 92° East 536 617 37,000 -780 Level Houston Center
02:03PM 30.8039 -98.4544 89° East 534 615 35,400 -1,800 Descending Houston Center
02:04PM 30.8064 -98.2836 89° East 524 603 33,400 -1,980 Descending Houston Center
02:05PM 30.8094 -98.0917 89° East 508 585 31,400 -1,980 Descending Houston Center
02:06PM 30.8108 -97.9317 89° East 496 571 29,400 -1,200 Descending Houston Center
02:07PM 30.8142 -97.7686 89° East 499 574 29,000 -240 Descending Houston Center
02:08PM 30.8156 -97.6031 89° East 508 585 29,000  Level Houston Center
02:09PM 30.8164 -97.4403 90° East 504 580 29,000  Level Houston Center
02:10PM 30.8189 -97.2503 89° East 510 587 29,000 -60 Level Houston Center
02:11PM 30.8211 -97.0881 89° East 507 583 28,900 -1,260 Descending Houston Center
02:12PM 30.7942 -96.9333 101° East 488 562 26,400 -2,280 Descending Houston Center
02:13PM 30.7511 -96.7947 110° East 462 532 24,200 -1,980 Descending Houston Center
02:14PM 30.7075 -96.6578 110° East 456 525 22,400 -2,160 Descending Houston Center
02:16PM 30.6661 -96.5269 110° East 434 499 19,700 -2,400 Descending Houston Center
02:17PM 30.6256 -96.3911 109° East 384 442 17,400 -2,040 Descending Houston Center
02:18PM 30.5894 -96.2803 111° Southeast 368 423 15,500 -1,920 Descending Houston Center
02:18PM 30.5783 -96.2461 111° Southeast 358 412 14,900 -1,860 Descending Houston Center
02:19PM 30.5536 -96.1733 112° Southeast 355 409 13,600 -1,980 Descending Houston Center
02:19PM 30.5422 -96.1411 112° Southeast 352 405 12,900 -1,980 Descending Houston Center
02:20PM 30.5197 -96.0675 110° East 349 402 11,600 -1,620 Descending Houston Center
02:21PM 30.4853 -95.9667 112° Southeast 343 395 10,100 -780 Descending Houston Center
02:22PM 30.4558 -95.8725 110° East 311 358 10,000 -240 Descending Houston Center
02:23PM 30.3864 -95.8431 160° South 282 325 9,600 -780 Descending Houston Center
02:24PM 30.2947 -95.8322 174° South 275 316 8,400 -780 Descending Houston Center
02:25PM 30.2247 -95.8200 171° South 260 299 8,000 -420 Descending Houston Center
02:26PM 30.1653 -95.8092 171° South 222 255 7,600 -540 Descending Houston Center
02:27PM 30.1086 -95.8000 172° South 207 238 7,000 -300 Descending Houston Center
02:28PM 30.0600 -95.7942 174° South 180 207 7,000 -480 Level Houston Center
02:29PM 30.0239 -95.7425 129° Southeast 178 205 6,000 -900 Descending Houston Center
02:30PM 29.9972 -95.6939 122° Southeast 178 205 5,200 -600 Descending Houston Center
02:31PM 29.9928 -95.6344 95° East 189 217 4,800 -780 Descending Houston Center
02:32PM 29.9928 -95.5722 90° East 194 223 3,700 -1,020 Descending Houston Center
02:33PM 29.9936 -95.5128 89° East 190 219 2,800 -900 Descending Houston Center